createdAt,value
2019-02-02T00:01:47.960Z,16.03
2019-02-02T00:04:17.599Z,14.90
2019-02-02T00:06:46.798Z,16.93
2019-02-02T00:09:15.675Z,13.30
2019-02-02T00:11:44.544Z,13.87
2019-02-02T00:14:13.558Z,14.57
2019-02-02T00:16:42.750Z,14.83
2019-02-02T00:19:11.903Z,13.37
2019-02-02T00:21:40.900Z,13.80
2019-02-02T00:24:09.807Z,13.33
2019-02-02T00:26:38.724Z,13.97
2019-02-02T00:29:07.741Z,17.70
2019-02-02T00:31:36.743Z,13.80
2019-02-02T00:34:06.310Z,15.20
2019-02-02T00:36:35.199Z,14.80
2019-02-02T00:39:07.287Z,15.60
2019-02-02T00:41:36.294Z,13.70
2019-02-02T00:44:06.704Z,14.90
2019-02-02T00:46:35.671Z,14.53
2019-02-02T00:49:04.911Z,14.93
2019-02-02T00:51:34.068Z,14.00
2019-02-02T00:54:03.075Z,14.50
2019-02-02T00:56:31.905Z,12.60
2019-02-02T00:59:00.777Z,15.00
2019-02-02T01:01:29.783Z,11.77
2019-02-02T01:03:58.596Z,12.90
2019-02-02T01:06:28.051Z,13.70
2019-02-02T01:08:57.023Z,13.10
2019-02-02T01:11:26.175Z,14.93
2019-02-02T01:13:55.355Z,14.17
2019-02-02T01:16:24.379Z,15.07
2019-02-02T01:18:54.025Z,14.90
2019-02-02T01:21:23.028Z,14.70
2019-02-02T01:23:54.943Z,14.00
2019-02-02T01:26:24.844Z,15.67
2019-02-02T01:28:54.119Z,15.23
2019-02-02T01:31:23.158Z,15.83
2019-02-02T01:33:51.998Z,14.80
2019-02-02T01:36:21.517Z,15.47
2019-02-02T01:38:50.473Z,16.13
2019-02-02T01:41:19.542Z,17.93
2019-02-02T01:43:48.564Z,16.90
2019-02-02T01:46:17.524Z,14.83
2019-02-02T01:48:46.415Z,14.97
2019-02-02T01:51:15.388Z,16.30
2019-02-02T01:53:44.259Z,16.07
2019-02-02T01:56:13.251Z,15.00
2019-02-02T01:58:43.292Z,15.53
2019-02-02T02:01:12.457Z,14.40
2019-02-02T02:03:41.268Z,16.73
2019-02-02T02:06:10.847Z,16.70
2019-02-02T02:08:39.874Z,14.90
2019-02-02T02:11:08.895Z,14.37
2019-02-02T02:13:37.777Z,14.73
2019-02-02T02:16:07.058Z,15.70
2019-02-02T02:18:36.027Z,16.70
2019-02-02T02:21:04.898Z,14.80
2019-02-02T02:23:33.828Z,15.60
2019-02-02T02:26:02.743Z,13.83
2019-02-02T02:28:31.622Z,15.07
2019-02-02T02:31:00.536Z,15.47
2019-02-02T02:33:29.556Z,15.10
2019-02-02T02:35:58.471Z,15.17
2019-02-02T02:38:27.260Z,17.10
2019-02-02T02:40:56.174Z,14.47
2019-02-02T02:43:25.139Z,15.90
2019-02-02T02:45:54.056Z,16.70
2019-02-02T02:48:22.954Z,16.23
2019-02-02T02:50:51.803Z,16.53
2019-02-02T02:53:20.611Z,15.90
2019-02-02T02:55:49.503Z,15.80
2019-02-02T02:58:18.436Z,16.30
2019-02-02T03:00:47.429Z,15.97
2019-02-02T03:03:16.391Z,18.97
2019-02-02T03:05:45.272Z,16.57
2019-02-02T03:08:14.566Z,18.73
2019-02-02T03:10:43.481Z,16.97
2019-02-02T03:13:12.604Z,18.67
2019-02-02T03:15:41.440Z,17.20
2019-02-02T03:18:10.395Z,17.00
2019-02-02T03:20:39.206Z,16.83
2019-02-02T03:23:08.064Z,16.53
2019-02-02T03:25:37.109Z,17.50
2019-02-02T03:28:06.099Z,17.00
2019-02-02T03:30:34.978Z,18.37
2019-02-02T03:33:04.026Z,17.70
2019-02-02T03:35:32.892Z,16.40
2019-02-02T03:38:01.681Z,16.63
2019-02-02T03:40:30.677Z,16.83
2019-02-02T03:42:59.613Z,16.17
2019-02-02T03:45:28.460Z,18.93
2019-02-02T03:47:57.471Z,17.20
2019-02-02T03:50:26.368Z,16.57
2019-02-02T03:52:55.329Z,16.63
2019-02-02T03:55:24.237Z,16.50
2019-02-02T03:57:53.132Z,16.37
2019-02-02T04:00:22.442Z,17.33
2019-02-02T04:02:51.625Z,18.27
2019-02-02T04:05:25.824Z,17.20
2019-02-02T04:07:54.783Z,18.80
2019-02-02T04:10:23.792Z,18.03
2019-02-02T04:12:52.789Z,20.43
2019-02-02T04:15:21.839Z,19.23
2019-02-02T04:17:51.164Z,19.57
2019-02-02T04:20:21.362Z,18.27
2019-02-02T04:22:50.824Z,17.10
2019-02-02T04:25:20.787Z,17.90
2019-02-02T04:27:49.664Z,26.87
2019-02-02T04:30:20.730Z,16.80
2019-02-02T04:32:49.787Z,15.27
2019-02-02T04:35:18.765Z,18.00
2019-02-02T04:37:47.716Z,16.80
2019-02-02T04:40:16.658Z,16.70
2019-02-02T04:42:45.828Z,17.17
2019-02-02T04:45:14.972Z,16.13
2019-02-02T04:47:44.119Z,17.87
2019-02-02T04:50:14.925Z,15.77
2019-02-02T04:52:44.133Z,15.03
2019-02-02T04:55:14.467Z,16.53
2019-02-02T04:57:43.403Z,17.30
2019-02-02T05:00:15.330Z,15.80
2019-02-02T05:02:44.274Z,17.27
2019-02-02T05:05:13.889Z,16.93
2019-02-02T05:07:42.842Z,15.60
2019-02-02T05:10:14.304Z,16.90
2019-02-02T05:12:43.223Z,15.60
2019-02-02T05:15:12.295Z,17.40
2019-02-02T05:17:41.674Z,14.87
2019-02-02T05:20:11.665Z,15.30
2019-02-02T05:22:40.584Z,14.37
2019-02-02T05:25:09.716Z,15.97
2019-02-02T05:27:38.953Z,16.20
2019-02-02T05:30:11.811Z,15.37
2019-02-02T05:32:40.831Z,17.77
2019-02-02T05:35:10.173Z,15.77
2019-02-02T05:37:39.092Z,17.27
2019-02-02T05:40:10.261Z,16.73
2019-02-02T05:42:39.263Z,17.37
2019-02-02T05:45:10.250Z,16.77
2019-02-02T05:47:39.345Z,17.40
2019-02-02T05:50:09.975Z,17.13
2019-02-02T05:52:38.853Z,17.20
2019-02-02T05:55:09.735Z,16.07
2019-02-02T05:57:38.918Z,17.63
2019-02-02T06:00:12.170Z,17.50
2019-02-02T06:02:41.161Z,17.60
2019-02-02T06:05:10.202Z,17.20
2019-02-02T06:07:39.103Z,16.77
2019-02-02T06:10:10.528Z,16.63
2019-02-02T06:12:39.805Z,15.40
2019-02-02T06:15:09.034Z,16.87
2019-02-02T06:17:37.857Z,15.60
2019-02-02T06:20:08.595Z,16.87
2019-02-02T06:22:37.462Z,15.17
2019-02-02T06:25:07.742Z,16.40
2019-02-02T06:27:36.570Z,17.30
2019-02-02T06:30:08.026Z,16.60
2019-02-02T06:32:37.164Z,16.70
2019-02-02T06:35:07.765Z,17.60
2019-02-02T06:37:36.580Z,16.60
2019-02-02T06:40:06.041Z,16.30
2019-02-02T06:42:34.935Z,15.13
2019-02-02T06:45:04.059Z,17.07
2019-02-02T06:47:33.437Z,16.80
2019-02-02T06:50:02.341Z,17.93
2019-02-02T06:52:31.719Z,17.53
2019-02-02T06:55:00.563Z,17.80
2019-02-02T06:57:29.557Z,15.90
2019-02-02T06:59:58.565Z,15.37
2019-02-02T07:02:27.607Z,15.73
2019-02-02T07:04:56.431Z,14.77
2019-02-02T07:07:25.960Z,16.60
2019-02-02T07:09:54.798Z,13.87
2019-02-02T07:12:24.356Z,13.80
2019-02-02T07:14:53.195Z,14.77
2019-02-02T07:17:22.092Z,14.43
2019-02-02T07:19:51.368Z,14.60
2019-02-02T07:22:20.186Z,13.93
2019-02-02T07:24:50.161Z,13.72
2019-02-02T07:27:19.968Z,13.30
2019-02-02T07:29:48.838Z,13.97
2019-02-02T07:32:17.646Z,12.90
2019-02-02T07:34:46.567Z,13.20
2019-02-02T07:37:15.457Z,12.03
2019-02-02T07:39:44.464Z,13.20
2019-02-02T07:42:13.630Z,11.73
2019-02-02T07:44:43.118Z,11.77
2019-02-02T07:47:12.084Z,11.10
2019-02-02T07:49:40.995Z,9.57
2019-02-02T07:52:09.854Z,10.60
2019-02-02T07:54:38.876Z,9.80
2019-02-02T07:57:07.871Z,11.20
2019-02-02T07:59:36.780Z,9.87
2019-02-02T08:02:05.788Z,10.93
2019-02-02T08:04:34.832Z,12.00
2019-02-02T08:07:03.950Z,11.13
2019-02-02T08:09:33.141Z,11.43
2019-02-02T08:12:02.114Z,10.47
2019-02-02T08:14:30.951Z,12.53
2019-02-02T08:17:00.173Z,15.03
2019-02-02T08:19:29.140Z,10.30
2019-02-02T08:21:58.195Z,11.00
2019-02-02T08:24:27.142Z,11.20
2019-02-02T08:26:56.150Z,11.07
2019-02-02T08:29:25.548Z,9.97
2019-02-02T08:31:55.232Z,10.90
2019-02-02T08:34:24.217Z,10.33
2019-02-02T08:36:53.059Z,10.50
2019-02-02T08:39:29.023Z,10.27
2019-02-02T08:41:52.902Z,11.10
2019-02-02T08:44:21.765Z,11.60
2019-02-02T08:46:50.672Z,13.97
2019-02-02T08:49:19.783Z,10.07
2019-02-02T08:51:48.641Z,11.37
2019-02-02T08:54:17.498Z,10.60
2019-02-02T08:56:46.493Z,11.33
2019-02-02T08:59:15.330Z,11.93
2019-02-02T09:01:44.192Z,9.67
2019-02-02T09:04:13.128Z,10.53
2019-02-02T09:06:42.994Z,12.10
2019-02-02T09:09:12.023Z,14.40
2019-02-02T09:11:41.094Z,12.70
2019-02-02T09:14:10.025Z,13.13
2019-02-02T09:16:38.926Z,13.87
2019-02-02T09:19:07.954Z,13.60
2019-02-02T09:21:36.864Z,14.70
2019-02-02T09:24:05.750Z,14.50
2019-02-02T09:26:34.564Z,16.50
2019-02-02T09:29:04.091Z,16.10
2019-02-02T09:31:33.009Z,19.57
2019-02-02T09:34:01.909Z,16.63
2019-02-02T09:36:30.876Z,17.20
2019-02-02T09:38:59.818Z,17.90
2019-02-02T09:41:28.691Z,17.40
2019-02-02T09:43:57.555Z,19.00
2019-02-02T09:46:26.806Z,19.30
2019-02-02T09:48:57.806Z,19.20
2019-02-02T09:51:26.369Z,21.70
2019-02-02T09:53:55.675Z,23.20
2019-02-02T09:56:24.589Z,23.40
2019-02-02T09:58:53.912Z,22.33
2019-02-02T10:01:27.738Z,20.30
2019-02-02T10:03:54.482Z,20.93
2019-02-02T10:06:23.648Z,21.70
2019-02-02T10:08:52.693Z,20.47
2019-02-02T10:11:21.679Z,21.30
2019-02-02T10:13:52.160Z,23.57
2019-02-02T10:16:21.919Z,22.30
2019-02-02T10:18:51.108Z,21.90
2019-02-02T10:21:20.039Z,21.87
2019-02-02T10:23:49.258Z,25.50
2019-02-02T10:26:18.193Z,20.13
2019-02-02T10:28:47.216Z,20.67
2019-02-02T10:31:16.147Z,21.10
2019-02-02T10:33:45.171Z,21.10
2019-02-02T10:36:13.977Z,20.07
2019-02-02T10:38:43.183Z,20.27
2019-02-02T10:41:12.383Z,22.53
2019-02-02T10:43:41.202Z,23.20
2019-02-02T10:46:10.844Z,21.10
2019-02-02T10:48:39.885Z,23.23
2019-02-02T10:51:08.891Z,22.30
2019-02-02T10:53:38.279Z,23.67
2019-02-02T10:56:07.243Z,24.97
2019-02-02T10:58:36.071Z,27.53
2019-02-02T11:01:05.537Z,21.87
2019-02-02T11:03:34.427Z,24.07
2019-02-02T11:06:03.882Z,21.67
2019-02-02T11:08:32.884Z,23.83
2019-02-02T11:11:01.923Z,24.07
2019-02-02T11:13:31.184Z,22.33
2019-02-02T11:16:00.275Z,21.67
2019-02-02T11:18:29.154Z,22.37
2019-02-02T11:20:58.323Z,23.93
2019-02-02T11:23:27.354Z,25.00
2019-02-02T11:25:56.466Z,27.27
2019-02-02T11:28:25.550Z,24.97
2019-02-02T11:30:54.541Z,26.67
2019-02-02T11:33:23.588Z,23.07
2019-02-02T11:35:52.557Z,24.47
2019-02-02T11:38:21.683Z,26.20
2019-02-02T11:40:50.645Z,23.70
2019-02-02T11:43:19.444Z,23.80
2019-02-02T11:45:48.549Z,23.80
2019-02-02T11:48:17.355Z,22.40
2019-02-02T11:50:46.314Z,23.77
2019-02-02T11:53:15.291Z,22.90
2019-02-02T11:55:44.147Z,23.40
2019-02-02T11:58:13.603Z,22.00
2019-02-02T12:00:43.511Z,21.23
2019-02-02T12:03:12.916Z,20.80
2019-02-02T12:05:42.097Z,20.03
2019-02-02T12:08:10.992Z,19.60
2019-02-02T12:10:39.874Z,21.10
2019-02-02T12:13:08.911Z,19.57
2019-02-02T12:15:37.925Z,18.90
2019-02-02T12:18:07.132Z,19.73
2019-02-02T12:20:36.833Z,17.97
2019-02-02T12:23:06.011Z,19.50
2019-02-02T12:25:35.547Z,19.37
2019-02-02T12:28:05.033Z,20.23
2019-02-02T12:30:35.453Z,21.60
2019-02-02T12:33:05.370Z,21.20
2019-02-02T12:35:34.472Z,20.00
2019-02-02T12:38:03.411Z,19.90
2019-02-02T12:40:32.547Z,22.07
2019-02-02T12:43:01.706Z,21.47
2019-02-02T12:45:39.998Z,22.40
2019-02-02T12:48:09.384Z,24.47
2019-02-02T12:50:38.661Z,25.40
2019-02-02T12:53:07.844Z,25.40
2019-02-02T12:55:36.920Z,25.07
2019-02-02T12:58:07.107Z,26.60
2019-02-02T13:00:36.070Z,28.80
2019-02-02T13:03:05.470Z,29.10
2019-02-02T13:05:34.541Z,28.50
2019-02-02T13:08:05.448Z,32.57
2019-02-02T13:10:34.783Z,31.10
2019-02-02T13:13:04.113Z,33.03
2019-02-02T13:15:33.083Z,33.40
2019-02-02T13:18:02.379Z,34.00
2019-02-02T13:20:31.416Z,30.70
2019-02-02T13:23:00.449Z,33.47
2019-02-02T13:25:29.643Z,33.10
2019-02-02T13:27:58.723Z,31.63
2019-02-02T13:30:30.139Z,34.90
2019-02-02T13:32:59.215Z,32.07
2019-02-02T13:35:28.659Z,35.60
2019-02-02T13:37:57.607Z,33.73
2019-02-02T13:40:26.823Z,33.47
2019-02-02T13:42:55.743Z,36.23
2019-02-02T13:45:24.895Z,33.70
2019-02-02T13:47:54.090Z,35.60
2019-02-02T13:50:23.129Z,31.63
2019-02-02T13:52:52.500Z,30.93
2019-02-02T13:55:21.828Z,34.93
2019-02-02T13:57:50.788Z,35.30
2019-02-02T14:00:21.957Z,34.23
2019-02-02T14:03:02.176Z,32.77
2019-02-02T14:05:22.075Z,31.97
2019-02-02T14:07:51.277Z,34.20
2019-02-02T14:10:25.058Z,30.90
2019-02-02T14:12:54.124Z,33.00
2019-02-02T14:15:23.487Z,32.70
2019-02-02T14:17:52.768Z,32.80
2019-02-02T14:20:22.076Z,33.00
2019-02-02T14:22:51.064Z,31.50
2019-02-02T14:25:20.014Z,35.43
2019-02-02T14:27:49.570Z,29.13
2019-02-02T14:30:20.301Z,30.70
2019-02-02T14:32:49.492Z,35.93
2019-02-02T14:35:19.530Z,32.93
2019-02-02T14:37:48.712Z,37.23
2019-02-02T14:40:18.615Z,37.00
2019-02-02T14:42:47.551Z,35.43
2019-02-02T14:45:18.384Z,36.03
2019-02-02T14:47:47.241Z,30.93
2019-02-02T14:50:18.852Z,33.97
2019-02-02T14:52:48.507Z,34.90
2019-02-02T14:55:20.754Z,30.93
2019-02-02T14:57:49.851Z,30.77
2019-02-02T15:00:20.554Z,32.33
2019-02-02T15:02:49.759Z,31.93
2019-02-02T15:05:20.921Z,31.17
2019-02-02T15:07:50.456Z,30.67
2019-02-02T15:10:20.012Z,30.30
2019-02-02T15:12:49.256Z,30.40
2019-02-02T15:15:18.635Z,33.00
2019-02-02T15:17:47.866Z,30.60
2019-02-02T15:20:22.149Z,27.50
2019-02-02T15:22:50.574Z,31.50
2019-02-02T15:25:19.527Z,32.63
2019-02-02T15:27:49.103Z,30.80
2019-02-02T15:30:19.007Z,34.13
2019-02-02T15:32:48.163Z,32.20
2019-02-02T15:35:17.153Z,33.40
2019-02-02T15:37:45.972Z,29.60
2019-02-02T15:40:16.538Z,34.13
2019-02-02T15:42:45.810Z,30.90
2019-02-02T15:45:18.350Z,36.07
2019-02-02T15:47:47.573Z,34.90
2019-02-02T15:50:17.168Z,33.07
2019-02-02T15:52:46.250Z,34.20
2019-02-02T15:55:16.861Z,36.20
2019-02-02T15:57:46.211Z,33.33
2019-02-02T16:00:20.914Z,29.97
2019-02-02T16:02:49.911Z,30.23
2019-02-02T16:05:19.095Z,29.37
2019-02-02T16:07:48.492Z,32.57
2019-02-02T16:10:22.379Z,32.90
2019-02-02T16:12:51.581Z,33.00
2019-02-02T16:15:20.528Z,32.47
2019-02-02T16:17:49.593Z,32.53
2019-02-02T16:20:20.648Z,30.47
2019-02-02T16:22:50.010Z,33.33
2019-02-02T16:25:19.323Z,34.53
2019-02-02T16:27:48.426Z,33.53
2019-02-02T16:30:20.688Z,34.60
2019-02-02T16:32:49.855Z,31.97
2019-02-02T16:35:19.024Z,34.23
2019-02-02T16:37:47.827Z,34.90
2019-02-02T16:40:18.618Z,34.33
2019-02-02T16:42:47.744Z,35.47
2019-02-02T16:45:18.331Z,36.27
2019-02-02T16:47:47.320Z,34.50
2019-02-02T16:50:16.962Z,40.47
2019-02-02T16:52:46.559Z,36.27
2019-02-02T16:55:16.338Z,37.77
2019-02-02T16:57:45.200Z,36.50
2019-02-02T17:00:19.588Z,35.17
2019-02-02T17:02:48.760Z,38.90
2019-02-02T17:05:17.757Z,36.87
2019-02-02T17:07:46.802Z,36.87
2019-02-02T17:10:37.978Z,38.60
2019-02-02T17:13:07.712Z,35.43
2019-02-02T17:15:36.701Z,38.70
2019-02-02T17:18:07.368Z,35.07
2019-02-02T17:20:41.755Z,39.20
2019-02-02T17:23:10.713Z,34.50
2019-02-02T17:25:39.866Z,38.00
2019-02-02T17:28:09.076Z,39.00
2019-02-02T17:30:38.388Z,33.73
2019-02-02T17:33:10.149Z,35.57
2019-02-02T17:35:39.295Z,38.60
2019-02-02T17:38:08.523Z,43.17
2019-02-02T17:40:38.026Z,39.03
2019-02-02T17:43:07.038Z,40.10
2019-02-02T17:45:36.044Z,35.93
2019-02-02T17:48:05.712Z,41.10
2019-02-02T17:50:35.402Z,38.97
2019-02-02T17:53:04.871Z,39.23
2019-02-02T17:55:34.114Z,37.60
2019-02-02T17:58:03.150Z,39.27
2019-02-02T18:00:55.008Z,42.50
2019-02-02T18:03:24.922Z,38.13
2019-02-02T18:05:54.005Z,42.13
2019-02-02T18:08:22.960Z,41.90
2019-02-02T18:10:52.327Z,42.13
2019-02-02T18:13:21.332Z,40.70
2019-02-02T18:15:50.265Z,39.87
2019-02-02T18:18:19.494Z,41.83
2019-02-02T18:20:48.368Z,40.90
2019-02-02T18:23:18.298Z,40.80
2019-02-02T18:25:47.403Z,38.90
2019-02-02T18:28:16.404Z,37.70
2019-02-02T18:30:46.007Z,40.23
2019-02-02T18:33:15.091Z,38.97
2019-02-02T18:35:44.511Z,40.53
2019-02-02T18:38:13.752Z,38.27
2019-02-02T18:40:42.787Z,40.40
2019-02-02T18:43:11.771Z,39.07
2019-02-02T18:45:40.770Z,36.13
2019-02-02T18:48:09.886Z,41.20
2019-02-02T18:50:38.692Z,36.93
2019-02-02T18:53:07.748Z,37.50
2019-02-02T18:56:09.577Z,35.67
2019-02-02T18:58:38.456Z,37.40
2019-02-02T19:01:07.423Z,37.67
2019-02-02T19:03:36.450Z,35.50
2019-02-02T19:06:05.493Z,36.10
2019-02-02T19:08:34.389Z,35.93
2019-02-02T19:11:03.830Z,34.37
2019-02-02T19:13:32.761Z,32.10
2019-02-02T19:16:01.959Z,31.40
2019-02-02T19:18:30.905Z,35.00
2019-02-02T19:20:59.872Z,33.50
2019-02-02T19:23:28.886Z,32.13
2019-02-02T19:25:58.050Z,31.53
2019-02-02T19:28:39.132Z,33.90
2019-02-02T19:30:57.958Z,31.90
2019-02-02T19:33:27.067Z,30.87
2019-02-02T19:35:56.184Z,31.87
2019-02-02T19:38:25.233Z,31.10
2019-02-02T19:40:54.119Z,30.47
2019-02-02T19:43:23.191Z,32.73
2019-02-02T19:45:53.692Z,33.63
2019-02-02T19:48:22.767Z,29.67
2019-02-02T19:50:51.783Z,31.87
2019-02-02T19:53:20.669Z,33.60
2019-02-02T19:55:49.786Z,34.60
2019-02-02T19:58:18.841Z,37.53
2019-02-02T20:00:47.959Z,39.47
2019-02-02T20:03:16.993Z,35.97
2019-02-02T20:05:45.955Z,33.53
2019-02-02T20:08:15.006Z,35.37
2019-02-02T20:10:43.900Z,38.50
2019-02-02T20:13:13.055Z,40.90
2019-02-02T20:15:42.281Z,38.30
2019-02-02T20:18:11.352Z,41.10
2019-02-02T20:20:40.818Z,37.10
2019-02-02T20:23:10.154Z,40.97
2019-02-02T20:25:39.105Z,40.93
2019-02-02T20:28:08.080Z,40.50
2019-02-02T20:30:37.044Z,40.93
2019-02-02T20:33:06.493Z,41.30
2019-02-02T20:35:42.125Z,40.60
2019-02-02T20:38:06.059Z,41.80
2019-02-02T20:40:35.382Z,43.70
2019-02-02T20:43:04.349Z,46.10
2019-02-02T20:45:34.847Z,41.10
2019-02-02T20:48:04.047Z,41.43
2019-02-02T20:50:33.088Z,42.10
2019-02-02T20:53:02.542Z,43.97
2019-02-02T20:55:37.186Z,39.80
2019-02-02T20:58:08.388Z,41.60
2019-02-02T21:00:37.894Z,43.87
2019-02-02T21:03:07.117Z,40.67
2019-02-02T21:05:36.511Z,47.90
2019-02-02T21:08:06.033Z,42.77
2019-02-02T21:10:35.149Z,42.83
2019-02-02T21:13:04.792Z,46.60
2019-02-02T21:15:33.864Z,43.17
2019-02-02T21:18:03.049Z,42.73
2019-02-02T21:20:32.285Z,45.87
2019-02-02T21:23:01.476Z,38.43
2019-02-02T21:25:30.441Z,39.50
2019-02-02T21:27:59.550Z,45.23
2019-02-02T21:30:35.791Z,47.23
2019-02-02T21:33:05.713Z,50.60
2019-02-02T21:35:34.810Z,41.30
2019-02-02T21:38:03.951Z,41.17
2019-02-02T21:40:34.026Z,48.03
2019-02-02T21:43:03.067Z,47.70
2019-02-02T21:45:32.677Z,46.50
2019-02-02T21:48:01.791Z,44.97
2019-02-02T21:50:30.715Z,52.47
2019-02-02T21:52:59.847Z,45.80
2019-02-02T21:55:29.784Z,42.67
2019-02-02T21:57:58.916Z,43.00
2019-02-02T22:00:30.629Z,45.07
2019-02-02T22:02:59.991Z,40.57
2019-02-02T22:05:29.220Z,49.10
2019-02-02T22:07:58.166Z,46.70
2019-02-02T22:10:27.631Z,42.00
2019-02-02T22:12:57.104Z,45.60
2019-02-02T22:15:26.328Z,45.03
2019-02-02T22:17:55.373Z,44.90
2019-02-02T22:20:24.622Z,48.50
2019-02-02T22:22:53.668Z,48.07
2019-02-02T22:25:24.544Z,46.30
2019-02-02T22:27:53.552Z,43.83
2019-02-02T22:30:25.201Z,45.50
2019-02-02T22:32:54.240Z,46.70
2019-02-02T22:35:23.228Z,39.60
2019-02-02T22:37:52.185Z,42.97
2019-02-02T22:40:22.751Z,43.13
2019-02-02T22:42:51.687Z,41.83
2019-02-02T22:45:21.412Z,45.37
2019-02-02T22:47:51.021Z,39.90
2019-02-02T22:50:21.421Z,41.23
2019-02-02T22:52:50.398Z,38.90
2019-02-02T22:55:19.629Z,39.30
2019-02-02T22:57:48.669Z,40.77
2019-02-02T23:01:06.623Z,37.93
2019-02-02T23:04:00.394Z,34.47
2019-02-02T23:06:55.675Z,35.07
2019-02-02T23:10:03.140Z,43.47
2019-02-02T23:13:05.845Z,31.23
2019-02-02T23:15:59.707Z,36.73
2019-02-02T23:18:28.567Z,34.30
2019-02-02T23:20:57.456Z,37.80
2019-02-02T23:23:26.767Z,34.27
2019-02-02T23:25:56.001Z,36.40
2019-02-02T23:28:24.880Z,36.33
2019-02-02T23:30:55.589Z,38.23
2019-02-02T23:33:24.478Z,35.10
2019-02-02T23:35:53.723Z,38.43
2019-02-02T23:38:22.630Z,38.10
2019-02-02T23:40:51.671Z,38.23
2019-02-02T23:43:20.603Z,40.83
2019-02-02T23:45:49.506Z,37.20
2019-02-02T23:48:18.400Z,41.60
2019-02-02T23:50:47.722Z,38.83
2019-02-02T23:53:16.653Z,39.47
2019-02-02T23:55:45.475Z,43.90
2019-02-02T23:58:14.580Z,41.37
